Time;durP1;ratioP1;P1;durP2;ratioP2;P2;SDS_P1;SDS_P2;PMS_P1;PMS_P2;Temp;Humidity;BMP_temperature;BMP_pressure;BME280_temperature;BME280_humidity;BME280_pressure;Samples;Min_cycle;Max_cycle;Signal;HPM_P1;HPM_P2
2021/06/02 00:01:29;;;;;;;1.30;0.93;;;;;;;;;;5093941;28;20236;-64
2021/06/02 00:03:55;;;;;;;4.82;1.38;;;;;;;;;;5095317;28;20311;-63
2021/06/02 00:06:24;;;;;;;1.65;1.55;;;;;;;;;;5078740;28;20175;-63
2021/06/02 00:08:52;;;;;;;1.70;1.30;;;;;;;;;;5078329;28;20187;-63
2021/06/02 00:11:18;;;;;;;2.50;1.98;;;;;;;;;;5087891;28;20222;-64
2021/06/02 00:13:46;;;;;;;0.90;0.90;;;;;;;;;;5079764;28;20570;-63
2021/06/02 00:16:12;;;;;;;0.95;0.95;;;;;;;;;;5075936;28;20206;-63
2021/06/02 00:18:38;;;;;;;2.05;1.10;;;;;;;;;;5093547;28;20189;-63
2021/06/02 00:21:06;;;;;;;2.60;1.85;;;;;;;;;;5073994;28;20229;-63
2021/06/02 00:23:32;;;;;;;2.10;1.80;;;;;;;;;;5074749;28;20191;-63
2021/06/02 00:26:00;;;;;;;0.65;0.65;;;;;;;;;;5075666;28;20171;-63
2021/06/02 00:28:26;;;;;;;1.10;1.00;;;;;;;;;;5094382;28;20257;-64
2021/06/02 00:30:52;;;;;;;1.20;1.20;;;;;;;;;;5092984;28;20209;-63
2021/06/02 00:33:19;;;;;;;1.92;1.08;;;;;;;;;;5075146;28;20191;-63
2021/06/02 00:35:45;;;;;;;1.77;1.67;;;;;;;;;;5086418;28;20163;-63
2021/06/02 00:38:11;;;;;;;1.33;1.23;;;;;;;;;;5074456;28;20210;-63
2021/06/02 00:40:58;;;;;;;1.10;1.10;;;;;;;;;;5085428;28;20183;-63
2021/06/02 00:43:24;;;;;;;2.72;1.85;;;;;;;;;;5094466;28;20206;-64
2021/06/02 00:45:50;;;;;;;1.40;1.30;;;;;;;;;;5081717;28;20179;-63
2021/06/02 00:48:17;;;;;;;1.70;1.60;;;;;;;;;;5087365;28;20179;-63
2021/06/02 00:50:44;;;;;;;1.20;1.20;;;;;;;;;;5089147;28;20409;-63
2021/06/02 00:53:10;;;;;;;1.45;1.27;;;;;;;;;;5094338;28;20195;-63
2021/06/02 00:55:36;;;;;;;0.85;0.77;;;;;;;;;;5084670;28;20175;-63
2021/06/02 00:58:03;;;;;;;1.10;1.00;;;;;;;;;;5091026;28;20181;-63
2021/06/02 01:00:29;;;;;;;2.25;2.13;;;;;;;;;;5086388;28;20495;-63
2021/06/02 01:02:57;;;;;;;1.13;0.93;;;;;;;;;;5094068;28;20291;-63
2021/06/02 01:05:24;;;;;;;3.15;1.85;;;;;;;;;;5092096;28;20653;-63
2021/06/02 01:07:51;;;;;;;2.78;1.80;;;;;;;;;;5070046;28;20261;-63
2021/06/02 01:10:18;;;;;;;1.05;1.05;;;;;;;;;;5093961;28;20258;-63
2021/06/02 01:12:47;;;;;;;4.00;1.02;;;;;;;;;;5076824;28;20282;-63
2021/06/02 01:15:13;;;;;;;1.55;1.30;;;;;;;;;;5073831;28;20657;-63
2021/06/02 01:17:40;;;;;;;2.20;2.00;;;;;;;;;;5090297;28;20190;-63
2021/06/02 01:20:06;;;;;;;2.15;1.70;;;;;;;;;;5093687;28;20178;-63
2021/06/02 01:22:37;;;;;;;0.73;0.70;;;;;;;;;;5078372;28;20217;-63
2021/06/02 01:25:06;;;;;;;1.73;1.38;;;;;;;;;;5073679;28;20179;-63
2021/06/02 01:27:32;;;;;;;1.42;1.27;;;;;;;;;;5078958;28;20198;-63
2021/06/02 01:29:58;;;;;;;1.80;1.00;;;;;;;;;;5073439;28;20163;-63
2021/06/02 01:32:43;;;;;;;1.03;1.03;;;;;;;;;;5091134;28;20661;-63
2021/06/02 01:35:09;;;;;;;1.33;0.90;;;;;;;;;;5074854;28;20421;-63
2021/06/02 01:37:53;;;;;;;1.10;1.00;;;;;;;;;;5082211;28;20610;-63
2021/06/02 01:40:19;;;;;;;1.58;1.48;;;;;;;;;;5081765;28;20425;-63
2021/06/02 01:42:50;;;;;;;1.15;0.90;;;;;;;;;;5074220;28;20206;-63
2021/06/02 01:45:36;;;;;;;1.35;1.13;;;;;;;;;;5092459;28;20178;-63
2021/06/02 01:48:10;;;;;;;1.08;1.05;;;;;;;;;;5087165;28;20178;-63
2021/06/02 01:50:39;;;;;;;2.58;1.70;;;;;;;;;;5084715;28;20217;-63
2021/06/02 01:53:05;;;;;;;2.00;1.60;;;;;;;;;;5073311;28;20291;-63
2021/06/02 01:55:34;;;;;;;1.23;1.13;;;;;;;;;;5092944;28;20637;-63
2021/06/02 01:58:13;;;;;;;1.20;1.10;;;;;;;;;;5083564;28;20575;-63
2021/06/02 02:00:57;;;;;;;0.93;0.93;;;;;;;;;;5077103;28;20697;-63
2021/06/02 02:03:26;;;;;;;1.58;1.00;;;;;;;;;;5059869;28;20218;-63
2021/06/02 02:06:04;;;;;;;2.03;1.83;;;;;;;;;;5072888;28;20593;-63
2021/06/02 02:08:30;;;;;;;1.05;1.02;;;;;;;;;;5089032;28;20235;-63
2021/06/02 02:11:06;;;;;;;2.20;2.10;;;;;;;;;;5090296;28;20538;-63
2021/06/02 02:13:35;;;;;;;1.20;1.20;;;;;;;;;;5081479;28;20441;-63
2021/06/02 02:16:10;;;;;;;1.42;1.27;;;;;;;;;;5073740;28;20172;-63
2021/06/02 02:18:43;;;;;;;1.35;1.20;;;;;;;;;;5073932;28;20685;-63
2021/06/02 02:21:12;;;;;;;0.88;0.88;;;;;;;;;;5092764;28;20177;-63
2021/06/02 02:23:38;;;;;;;1.63;1.35;;;;;;;;;;5090119;28;20190;-63
2021/06/02 02:26:07;;;;;;;1.00;1.00;;;;;;;;;;5078210;28;20170;-63
2021/06/02 02:28:45;;;;;;;1.23;0.90;;;;;;;;;;5090781;28;21716;-63
2021/06/02 02:31:22;;;;;;;1.20;1.10;;;;;;;;;;5092283;28;20182;-63
2021/06/02 02:33:56;;;;;;;1.10;1.00;;;;;;;;;;5090822;28;20198;-63
2021/06/02 02:36:28;;;;;;;1.85;1.75;;;;;;;;;;5076018;28;20207;-63
2021/06/02 02:39:03;;;;;;;1.67;1.00;;;;;;;;;;5079796;28;20174;-63
2021/06/02 02:41:52;;;;;;;1.63;1.52;;;;;;;;;;5082070;28;20205;-62
2021/06/02 02:44:27;;;;;;;1.33;1.23;;;;;;;;;;5072051;28;20576;-63
2021/06/02 02:47:15;;;;;;;1.05;0.80;;;;;;;;;;5071967;28;20186;-61
2021/06/02 02:49:44;;;;;;;2.10;1.70;;;;;;;;;;5086812;28;20200;-63
2021/06/02 02:52:13;;;;;;;1.20;1.10;;;;;;;;;;5085674;28;20277;-63
2021/06/02 02:54:42;;;;;;;2.38;1.88;;;;;;;;;;5072888;28;20677;-63
2021/06/02 02:57:27;;;;;;;1.42;1.33;;;;;;;;;;5092034;28;20587;-63
2021/06/02 03:00:13;;;;;;;1.55;1.45;;;;;;;;;;5084161;28;20189;-63
2021/06/02 03:02:46;;;;;;;1.10;1.08;;;;;;;;;;5073199;28;20696;-63
2021/06/02 03:05:13;;;;;;;5.28;1.65;;;;;;;;;;5083117;28;20183;-63
2021/06/02 03:07:41;;;;;;;1.55;1.48;;;;;;;;;;5082874;28;20653;-63
2021/06/02 03:10:15;;;;;;;0.93;0.90;;;;;;;;;;5086765;28;20182;-63
2021/06/02 03:12:59;;;;;;;1.30;1.20;;;;;;;;;;5087288;28;20193;-63
2021/06/02 03:15:40;;;;;;;1.35;1.25;;;;;;;;;;5071653;28;20241;-63
2021/06/02 03:18:16;;;;;;;1.40;1.30;;;;;;;;;;5090053;28;20193;-63
2021/06/02 03:20:47;;;;;;;0.70;0.70;;;;;;;;;;5088237;28;20653;-63
2021/06/02 03:23:31;;;;;;;1.65;1.55;;;;;;;;;;5075982;28;20217;-63
2021/06/02 03:26:10;;;;;;;1.23;1.23;;;;;;;;;;5071629;28;20175;-63
2021/06/02 03:28:48;;;;;;;1.83;1.73;;;;;;;;;;5075438;28;20231;-63
2021/06/02 03:31:26;;;;;;;1.00;1.00;;;;;;;;;;5083627;28;20534;-63
2021/06/02 03:34:10;;;;;;;1.20;1.20;;;;;;;;;;5078561;28;20194;-63
2021/06/02 03:36:55;;;;;;;1.13;1.02;;;;;;;;;;5072072;28;20240;-63
2021/06/02 03:39:30;;;;;;;1.75;1.65;;;;;;;;;;5071533;28;20179;-63
2021/06/02 03:42:00;;;;;;;1.73;1.42;;;;;;;;;;5082432;28;20326;-63
2021/06/02 03:44:41;;;;;;;0.90;0.90;;;;;;;;;;5079392;28;20187;-63
2021/06/02 03:47:26;;;;;;;1.10;1.10;;;;;;;;;;5083294;28;20566;-63
2021/06/02 03:49:52;;;;;;;1.42;1.38;;;;;;;;;;5092830;28;20185;-63
2021/06/02 03:52:36;;;;;;;2.00;1.00;;;;;;;;;;5072742;28;20195;-63
2021/06/02 03:55:07;;;;;;;0.77;0.77;;;;;;;;;;5087565;28;20184;-63
2021/06/02 03:57:54;;;;;;;1.67;1.20;;;;;;;;;;5091333;28;20166;-63
2021/06/02 04:00:22;;;;;;;1.25;1.15;;;;;;;;;;5029544;28;20194;-63
2021/06/02 04:02:55;;;;;;;0.93;0.93;;;;;;;;;;5088579;28;20259;-63
2021/06/02 04:05:27;;;;;;;1.60;1.00;;;;;;;;;;5080279;28;20353;-63
2021/06/02 04:07:53;;;;;;;1.88;1.45;;;;;;;;;;5082208;28;20171;-63
2021/06/02 04:10:39;;;;;;;0.87;0.83;;;;;;;;;;5070876;28;20529;-63
2021/06/02 04:13:14;;;;;;;1.63;1.52;;;;;;;;;;5070354;28;20476;-63
2021/06/02 04:15:42;;;;;;;4.50;4.03;;;;;;;;;;5073107;28;20181;-59
2021/06/02 04:18:09;;;;;;;44.97;33.65;;;;;;;;;;5091093;28;20182;-63
2021/06/02 04:20:36;;;;;;;1.58;1.48;;;;;;;;;;5060759;28;20180;-64
2021/06/02 04:23:03;;;;;;;4.75;1.75;;;;;;;;;;5070882;28;20241;-63
2021/06/02 04:25:29;;;;;;;3.15;1.42;;;;;;;;;;5084960;28;20178;-63
2021/06/02 04:27:55;;;;;;;1.63;1.52;;;;;;;;;;5091101;28;20646;-63
2021/06/02 04:30:24;;;;;;;1.17;0.95;;;;;;;;;;5081517;28;20174;-63
2021/06/02 04:32:50;;;;;;;1.23;1.15;;;;;;;;;;5073101;28;20714;-63
2021/06/02 04:35:17;;;;;;;2.53;2.33;;;;;;;;;;5073177;28;20222;-63
2021/06/02 04:37:43;;;;;;;2.20;2.08;;;;;;;;;;5075305;28;20425;-63
2021/06/02 04:40:11;;;;;;;1.77;1.40;;;;;;;;;;5070845;28;20178;-63
2021/06/02 04:42:38;;;;;;;1.63;1.52;;;;;;;;;;5082607;28;20542;-63
2021/06/02 04:45:05;;;;;;;1.90;1.65;;;;;;;;;;5094569;28;20179;-63
2021/06/02 04:47:32;;;;;;;1.23;1.13;;;;;;;;;;5094451;28;20194;-63
2021/06/02 04:50:18;;;;;;;1.20;1.15;;;;;;;;;;5094452;28;20181;-63
2021/06/02 04:52:50;;;;;;;1.35;1.25;;;;;;;;;;5094500;28;20204;-63
2021/06/02 04:55:38;;;;;;;3.67;2.35;;;;;;;;;;5094389;28;20174;-63
2021/06/02 04:58:04;;;;;;;1.50;1.40;;;;;;;;;;5094218;28;20178;-62
2021/06/02 05:00:30;;;;;;;0.82;0.82;;;;;;;;;;5074078;28;20186;-64
2021/06/02 05:03:13;;;;;;;1.58;1.50;;;;;;;;;;5076703;28;20550;-63
2021/06/02 05:05:54;;;;;;;1.30;1.20;;;;;;;;;;5093303;28;20191;-63
2021/06/02 05:11:03;;;;;;;1.05;1.02;;;;;;;;;;5125530;22;20262;-65
2021/06/02 05:13:35;;;;;;;1.00;0.85;;;;;;;;;;5114618;28;20173;-66
2021/06/02 05:16:20;;;;;;;1.60;1.50;;;;;;;;;;5096185;28;20230;-66
2021/06/02 05:19:17;;;;;;;1.67;1.60;;;;;;;;;;5092607;28;20446;-66
2021/06/02 05:22:05;;;;;;;1.80;1.70;;;;;;;;;;5094169;28;20599;-66
2021/06/02 05:24:50;;;;;;;1.52;1.52;;;;;;;;;;5082306;28;20515;-66
2021/06/02 05:27:34;;;;;;;2.90;1.80;;;;;;;;;;5092836;28;20170;-68
2021/06/02 05:30:19;;;;;;;1.33;1.30;;;;;;;;;;5082434;28;20194;-67
2021/06/02 05:32:57;;;;;;;0.95;0.95;;;;;;;;;;5075476;28;20209;-66
2021/06/02 05:35:23;;;;;;;1.05;1.00;;;;;;;;;;5093230;28;20265;-66
2021/06/02 05:38:03;;;;;;;2.07;1.97;;;;;;;;;;5093331;28;20163;-64
2021/06/02 05:40:46;;;;;;;1.25;1.15;;;;;;;;;;5092666;28;20973;-66
2021/06/02 05:43:12;;;;;;;1.60;1.60;;;;;;;;;;5085508;28;20206;-66
2021/06/02 05:45:57;;;;;;;0.93;0.90;;;;;;;;;;5093047;28;20704;-67
2021/06/02 05:48:26;;;;;;;1.60;1.50;;;;;;;;;;5087106;28;20990;-64
2021/06/02 05:51:12;;;;;;;1.85;1.70;;;;;;;;;;5092801;28;20207;-66
2021/06/02 05:54:17;;;;;;;4.88;1.65;;;;;;;;;;5075314;28;20186;-64
2021/06/02 05:56:55;;;;;;;1.50;1.08;;;;;;;;;;4975068;28;20182;-67
2021/06/02 05:59:30;;;;;;;1.42;1.38;;;;;;;;;;4991311;28;20360;-66
2021/06/02 06:01:58;;;;;;;2.72;1.85;;;;;;;;;;5054252;28;20297;-66
2021/06/02 06:04:42;;;;;;;1.70;1.60;;;;;;;;;;5079604;28;20277;-66
2021/06/02 06:07:15;;;;;;;1.52;1.42;;;;;;;;;;5105548;28;20196;-66
2021/06/02 06:09:56;;;;;;;1.77;1.67;;;;;;;;;;5084716;28;20206;-67
2021/06/02 06:12:41;;;;;;;7.72;1.50;;;;;;;;;;5093416;28;20179;-67
2021/06/02 06:15:32;;;;;;;1.65;1.55;;;;;;;;;;5093080;28;20174;-65
2021/06/02 06:18:22;;;;;;;1.00;1.00;;;;;;;;;;5092999;28;20182;-66
2021/06/02 06:21:03;;;;;;;1.55;1.38;;;;;;;;;;5092990;28;20206;-67
2021/06/02 06:23:36;;;;;;;1.08;1.08;;;;;;;;;;5092949;28;20195;-66
2021/06/02 06:26:09;;;;;;;0.93;0.93;;;;;;;;;;5092842;28;20267;-66
2021/06/02 06:28:35;;;;;;;1.60;1.50;;;;;;;;;;5090177;28;20175;-64
2021/06/02 06:31:02;;;;;;;2.70;2.07;;;;;;;;;;5092342;28;20541;-64
2021/06/02 06:33:29;;;;;;;1.27;1.10;;;;;;;;;;5092271;28;20495;-66
2021/06/02 06:35:56;;;;;;;1.60;1.50;;;;;;;;;;5092365;28;20174;-65
2021/06/02 06:38:24;;;;;;;1.17;1.07;;;;;;;;;;5092168;28;20406;-67
2021/06/02 06:40:52;;;;;;;1.63;1.53;;;;;;;;;;5092072;28;20436;-66
2021/06/02 06:43:19;;;;;;;1.33;1.23;;;;;;;;;;5092055;28;20487;-67
2021/06/02 06:45:46;;;;;;;1.37;1.20;;;;;;;;;;5092066;28;20438;-67
2021/06/02 06:48:16;;;;;;;1.10;0.97;;;;;;;;;;5092071;28;20449;-67
2021/06/02 06:50:45;;;;;;;4.00;1.90;;;;;;;;;;5091533;28;20527;-66
2021/06/02 06:53:12;;;;;;;1.37;1.27;;;;;;;;;;5092177;28;20413;-67
2021/06/02 06:55:39;;;;;;;1.40;1.30;;;;;;;;;;5092041;28;20408;-65
2021/06/02 06:58:06;;;;;;;0.97;0.97;;;;;;;;;;5091943;28;20410;-67
2021/06/02 07:00:32;;;;;;;2.30;1.37;;;;;;;;;;5091670;28;20432;-65
2021/06/02 07:02:59;;;;;;;0.90;0.90;;;;;;;;;;5091802;28;20454;-66
2021/06/02 07:05:26;;;;;;;1.77;1.10;;;;;;;;;;5091313;28;20400;-65
2021/06/02 07:07:53;;;;;;;1.20;1.00;;;;;;;;;;5091934;28;20404;-65
2021/06/02 07:10:21;;;;;;;1.63;1.53;;;;;;;;;;5091377;28;20508;-66
2021/06/02 07:12:47;;;;;;;1.20;1.20;;;;;;;;;;5091735;28;20450;-65
2021/06/02 07:15:14;;;;;;;2.40;1.90;;;;;;;;;;5092020;28;20938;-65
2021/06/02 07:17:43;;;;;;;1.90;1.80;;;;;;;;;;5091513;28;20440;-66
2021/06/02 07:20:10;;;;;;;1.80;1.70;;;;;;;;;;5091358;28;20889;-66
2021/06/02 07:22:40;;;;;;;2.47;2.10;;;;;;;;;;5091226;28;20993;-66
2021/06/02 07:25:07;;;;;;;2.50;1.83;;;;;;;;;;5091548;28;20470;-66
2021/06/02 07:27:35;;;;;;;1.63;1.53;;;;;;;;;;5091467;28;20745;-66
2021/06/02 07:30:02;;;;;;;1.60;1.50;;;;;;;;;;5091186;28;20399;-65
2021/06/02 07:32:28;;;;;;;1.77;1.50;;;;;;;;;;5091410;28;20432;-66
2021/06/02 07:34:54;;;;;;;2.60;2.20;;;;;;;;;;5091486;28;20930;-66
2021/06/02 07:37:20;;;;;;;2.70;2.27;;;;;;;;;;5091359;28;20440;-66
2021/06/02 07:39:47;;;;;;;2.20;2.10;;;;;;;;;;5091323;28;20432;-65
2021/06/02 07:42:13;;;;;;;1.70;1.47;;;;;;;;;;5091183;28;20491;-67
2021/06/02 07:44:39;;;;;;;2.23;2.03;;;;;;;;;;5091275;28;20428;-66
2021/06/02 07:47:05;;;;;;;1.83;1.73;;;;;;;;;;5091224;28;20440;-66
2021/06/02 07:49:31;;;;;;;2.20;2.00;;;;;;;;;;5090864;28;20397;-66
2021/06/02 07:52:00;;;;;;;4.60;2.23;;;;;;;;;;5091242;28;20383;-65
2021/06/02 07:54:26;;;;;;;1.80;1.70;;;;;;;;;;5089929;28;20383;-66
2021/06/02 07:56:52;;;;;;;3.27;2.10;;;;;;;;;;5090909;28;20386;-66
2021/06/02 07:59:18;;;;;;;1.70;1.60;;;;;;;;;;5090450;28;20429;-66
2021/06/02 08:01:46;;;;;;;1.90;1.80;;;;;;;;;;5089983;28;20478;-66
2021/06/02 08:04:12;;;;;;;1.73;1.63;;;;;;;;;;5090982;28;20379;-65
2021/06/02 08:06:38;;;;;;;1.70;1.60;;;;;;;;;;5090131;28;20416;-65
2021/06/02 08:09:05;;;;;;;3.37;1.60;;;;;;;;;;5090297;28;20872;-66
2021/06/02 08:11:31;;;;;;;1.80;1.70;;;;;;;;;;5090823;28;20430;-65
2021/06/02 08:13:57;;;;;;;1.93;1.53;;;;;;;;;;5090600;28;20471;-66
2021/06/02 08:16:23;;;;;;;2.30;1.70;;;;;;;;;;5057453;28;20413;-66
2021/06/02 08:18:51;;;;;;;1.83;1.50;;;;;;;;;;5094351;28;20442;-67
2021/06/02 08:21:17;;;;;;;1.37;1.27;;;;;;;;;;5094801;28;20487;-65
2021/06/02 08:23:43;;;;;;;1.30;1.17;;;;;;;;;;5094633;28;20496;-67
2021/06/02 08:26:09;;;;;;;0.67;0.67;;;;;;;;;;5094311;28;20400;-67
2021/06/02 08:28:35;;;;;;;1.73;1.63;;;;;;;;;;5094207;28;20405;-66
2021/06/02 08:31:01;;;;;;;2.53;1.33;;;;;;;;;;5094996;28;20749;-66
2021/06/02 08:33:27;;;;;;;1.17;1.17;;;;;;;;;;5094774;28;20447;-65
2021/06/02 08:35:54;;;;;;;1.83;1.40;;;;;;;;;;5094560;28;20735;-68
2021/06/02 08:38:20;;;;;;;1.53;1.43;;;;;;;;;;5094294;28;20464;-67
2021/06/02 08:40:46;;;;;;;1.70;1.30;;;;;;;;;;5093976;28;20431;-67
2021/06/02 08:43:12;;;;;;;1.20;1.10;;;;;;;;;;5094036;28;20841;-67
2021/06/02 08:45:38;;;;;;;1.20;1.13;;;;;;;;;;5094144;28;20453;-68
2021/06/02 08:48:05;;;;;;;1.40;1.13;;;;;;;;;;5094197;28;20409;-68
2021/06/02 08:50:31;;;;;;;1.23;1.20;;;;;;;;;;5093938;28;20470;-67
2021/06/02 08:53:01;;;;;;;12.90;12.17;;;;;;;;;;5094340;28;20453;-68
2021/06/02 08:55:27;;;;;;;23.93;22.27;;;;;;;;;;5076539;28;20899;-67
2021/06/02 08:57:54;;;;;;;20.17;18.47;;;;;;;;;;5093608;28;20412;-68
2021/06/02 09:00:21;;;;;;;62.27;23.50;;;;;;;;;;5093538;28;21248;-68
2021/06/02 09:02:53;;;;;;;20.73;10.43;;;;;;;;;;5093713;28;20581;-67
2021/06/02 09:05:19;;;;;;;22.10;19.90;;;;;;;;;;5093793;28;20405;-67
2021/06/02 09:07:48;;;;;;;15.67;14.40;;;;;;;;;;5093688;28;20633;-67
2021/06/02 09:10:14;;;;;;;9.30;6.57;;;;;;;;;;5093259;28;20947;-68
2021/06/02 09:12:42;;;;;;;6.30;5.93;;;;;;;;;;5093603;28;20412;-68
2021/06/02 09:15:09;;;;;;;4.53;1.13;;;;;;;;;;5093607;28;20412;-67
2021/06/02 09:17:57;;;;;;;2.67;1.73;;;;;;;;;;5093668;28;20429;-66
2021/06/02 09:20:41;;;;;;;1.40;0.30;;;;;;;;;;5093217;28;20417;-67
2021/06/02 09:23:26;;;;;;;1.80;0.20;;;;;;;;;;5093584;28;20465;-67
2021/06/02 09:25:57;;;;;;;1.80;0.20;;;;;;;;;;5093434;28;20934;-68
2021/06/02 09:28:23;;;;;;;1.47;0.20;;;;;;;;;;5093019;28;20400;-69
2021/06/02 09:30:48;;;;;;;0.60;0.20;;;;;;;;;;5092834;28;20414;-69
2021/06/02 09:33:15;;;;;;;1.30;0.20;;;;;;;;;;5093267;28;20493;-66
2021/06/02 09:35:42;;;;;;;1.30;0.20;;;;;;;;;;5093252;28;20454;-65
2021/06/02 09:38:09;;;;;;;0.60;0.20;;;;;;;;;;5093154;28;20780;-65
2021/06/02 09:40:36;;;;;;;1.20;0.20;;;;;;;;;;5092806;28;20652;-65
2021/06/02 09:43:02;;;;;;;1.00;0.20;;;;;;;;;;5092985;28;20460;-66
2021/06/02 09:45:28;;;;;;;1.10;0.20;;;;;;;;;;5093054;28;20415;-66
2021/06/02 09:47:56;;;;;;;1.00;0.20;;;;;;;;;;5092899;28;20407;-65
2021/06/02 09:50:28;;;;;;;0.60;0.20;;;;;;;;;;5092631;28;20424;-66
2021/06/02 09:52:55;;;;;;;0.40;0.20;;;;;;;;;;5092906;28;20462;-67
2021/06/02 09:55:28;;;;;;;0.40;0.20;;;;;;;;;;5092915;28;20491;-65
2021/06/02 09:58:02;;;;;;;0.40;0.20;;;;;;;;;;5092585;28;20409;-67
2021/06/02 10:00:29;;;;;;;0.30;0.20;;;;;;;;;;5092347;28;20424;-66
2021/06/02 10:03:30;;;;;;;0.30;0.20;;;;;;;;;;5074104;28;21001;-65
2021/06/02 10:05:56;;;;;;;0.30;0.20;;;;;;;;;;5092511;28;20416;-65
2021/06/02 10:08:29;;;;;;;0.30;0.20;;;;;;;;;;5092482;28;20409;-65
2021/06/02 10:10:55;;;;;;;0.30;0.20;;;;;;;;;;5092948;28;20974;-66
2021/06/02 10:13:22;;;;;;;0.30;0.20;;;;;;;;;;5093786;28;20510;-66
2021/06/02 10:15:49;;;;;;;0.30;0.20;;;;;;;;;;5093497;28;20856;-67
2021/06/02 10:18:31;;;;;;;0.30;0.20;;;;;;;;;;5093075;28;20405;-65
2021/06/02 10:21:08;;;;;;;0.20;0.20;;;;;;;;;;5092476;28;20862;-65
2021/06/02 10:23:36;;;;;;;0.20;0.20;;;;;;;;;;5092185;28;20487;-66
2021/06/02 10:26:03;;;;;;;0.20;0.20;;;;;;;;;;5092534;28;20779;-67
2021/06/02 10:28:30;;;;;;;0.20;0.20;;;;;;;;;;5091812;28;20408;-66
2021/06/02 10:30:57;;;;;;;0.20;0.20;;;;;;;;;;5092056;28;20776;-66
2021/06/02 10:33:23;;;;;;;0.20;0.20;;;;;;;;;;5092047;28;20405;-67
2021/06/02 10:35:49;;;;;;;0.20;0.20;;;;;;;;;;5091676;28;20409;-65
2021/06/02 10:38:16;;;;;;;0.20;0.20;;;;;;;;;;5091306;28;20470;-65
2021/06/02 10:40:42;;;;;;;0.10;0.10;;;;;;;;;;5091379;28;20447;-66
2021/06/02 10:43:18;;;;;;;0.10;0.10;;;;;;;;;;5091656;28;20460;-65
2021/06/02 10:45:44;;;;;;;0.10;0.10;;;;;;;;;;5091770;28;20462;-66
2021/06/02 10:48:12;;;;;;;0.10;0.10;;;;;;;;;;5091671;28;20887;-65
2021/06/02 10:50:42;;;;;;;0.20;0.20;;;;;;;;;;5090941;28;20472;-67
2021/06/02 10:53:20;;;;;;;0.20;0.20;;;;;;;;;;5073463;28;20420;-64
2021/06/02 10:55:47;;;;;;;0.10;0.10;;;;;;;;;;5072888;28;20499;-66
2021/06/02 10:58:21;;;;;;;0.10;0.10;;;;;;;;;;5091662;28;20911;-65
2021/06/02 11:00:48;;;;;;;0.20;0.20;;;;;;;;;;5091256;28;20424;-64
2021/06/02 11:03:25;;;;;;;0.20;0.20;;;;;;;;;;5088789;28;20456;-66
2021/06/02 11:06:06;;;;;;;0.20;0.20;;;;;;;;;;5071061;28;20839;-64
2021/06/02 11:11:33;;;;;;;0.20;0.20;;;;;;;;;;5109937;22;20496;-63
2021/06/02 11:14:18;;;;;;;0.30;0.20;;;;;;;;;;5091118;28;20832;-63
2021/06/02 11:16:44;;;;;;;0.20;0.20;;;;;;;;;;5091289;28;20806;-63
2021/06/02 11:19:16;;;;;;;0.20;0.20;;;;;;;;;;5089553;28;20389;-63
2021/06/02 11:21:54;;;;;;;0.20;0.20;;;;;;;;;;5070765;28;20469;-63
2021/06/02 11:24:32;;;;;;;0.20;0.20;;;;;;;;;;5070970;28;20911;-63
2021/06/02 11:27:14;;;;;;;0.20;0.20;;;;;;;;;;5069824;28;20480;-63
2021/06/02 11:29:49;;;;;;;0.20;0.20;;;;;;;;;;5070766;28;20427;-63
2021/06/02 11:32:15;;;;;;;0.20;0.20;;;;;;;;;;5070950;28;20837;-63
2021/06/02 11:34:42;;;;;;;0.20;0.20;;;;;;;;;;5071020;28;20426;-63
2021/06/02 11:37:08;;;;;;;0.20;0.20;;;;;;;;;;5071026;28;20451;-63
2021/06/02 11:39:37;;;;;;;0.20;0.20;;;;;;;;;;5052439;28;20503;-63
2021/06/02 11:42:04;;;;;;;0.20;0.20;;;;;;;;;;5070943;28;20457;-63
2021/06/02 11:44:31;;;;;;;0.20;0.20;;;;;;;;;;5071020;28;20408;-63
2021/06/02 11:46:57;;;;;;;0.20;0.20;;;;;;;;;;5070853;28;20404;-63
2021/06/02 11:49:24;;;;;;;0.20;0.20;;;;;;;;;;5070829;28;20423;-63
2021/06/02 11:51:50;;;;;;;0.20;0.20;;;;;;;;;;5075144;28;20417;-65
2021/06/02 11:54:16;;;;;;;0.20;0.20;;;;;;;;;;5075006;28;20409;-65
2021/06/02 11:56:42;;;;;;;0.20;0.20;;;;;;;;;;5075039;28;20409;-65
2021/06/02 11:59:08;;;;;;;0.20;0.20;;;;;;;;;;5074430;28;20492;-65
2021/06/02 12:01:34;;;;;;;0.20;0.20;;;;;;;;;;5074867;28;20444;-65
2021/06/02 12:04:00;;;;;;;0.20;0.20;;;;;;;;;;5074865;28;20416;-63
2021/06/02 12:06:28;;;;;;;0.20;0.20;;;;;;;;;;5074842;28;20403;-64
2021/06/02 12:08:55;;;;;;;0.20;0.20;;;;;;;;;;5074541;28;20416;-65
2021/06/02 12:11:21;;;;;;;0.20;0.20;;;;;;;;;;5074239;28;20498;-65
2021/06/02 12:13:47;;;;;;;0.20;0.20;;;;;;;;;;5074622;28;20871;-65
2021/06/02 12:16:14;;;;;;;0.20;0.20;;;;;;;;;;5074258;28;20408;-65
2021/06/02 12:18:41;;;;;;;0.20;0.20;;;;;;;;;;5074225;28;20408;-65
2021/06/02 12:21:13;;;;;;;0.20;0.20;;;;;;;;;;5074395;28;20804;-65
2021/06/02 12:24:09;;;;;;;0.20;0.20;;;;;;;;;;5074221;28;20460;-65
2021/06/02 12:26:42;;;;;;;0.20;0.20;;;;;;;;;;5053465;28;20462;-65
2021/06/02 12:29:09;;;;;;;0.20;0.20;;;;;;;;;;5073979;28;20377;-64
2021/06/02 12:31:35;;;;;;;0.20;0.20;;;;;;;;;;5074221;28;20408;-65
2021/06/02 12:34:03;;;;;;;0.20;0.20;;;;;;;;;;5074082;28;20492;-64
2021/06/02 12:36:31;;;;;;;0.20;0.20;;;;;;;;;;5074126;28;20397;-65
2021/06/02 12:38:57;;;;;;;0.20;0.20;;;;;;;;;;5073893;28;20414;-64
2021/06/02 12:41:26;;;;;;;0.20;0.20;;;;;;;;;;5074258;28;20927;-64
2021/06/02 12:43:52;;;;;;;0.20;0.20;;;;;;;;;;5073756;28;20419;-65
2021/06/02 12:46:18;;;;;;;0.30;0.20;;;;;;;;;;5073905;28;20384;-65
2021/06/02 12:48:45;;;;;;;0.30;0.20;;;;;;;;;;5073799;28;20409;-65
2021/06/02 12:51:15;;;;;;;0.30;0.20;;;;;;;;;;5073978;28;20453;-65
2021/06/02 12:53:42;;;;;;;0.30;0.20;;;;;;;;;;5073774;28;20915;-65
2021/06/02 12:56:09;;;;;;;0.30;0.20;;;;;;;;;;5073772;28;20451;-65
2021/06/02 12:58:35;;;;;;;0.30;0.20;;;;;;;;;;5073469;28;20382;-64
2021/06/02 13:01:12;;;;;;;0.30;0.20;;;;;;;;;;5073372;28;20417;-65
2021/06/02 13:03:44;;;;;;;0.30;0.20;;;;;;;;;;5073224;28;20834;-65
2021/06/02 13:06:14;;;;;;;0.30;0.20;;;;;;;;;;5073670;28;20397;-65
2021/06/02 13:08:41;;;;;;;0.30;0.20;;;;;;;;;;5073429;28;20425;-64
2021/06/02 13:11:07;;;;;;;0.30;0.20;;;;;;;;;;5073401;28;20453;-64
2021/06/02 13:13:33;;;;;;;0.30;0.20;;;;;;;;;;5073459;28;20467;-64
2021/06/02 13:16:00;;;;;;;0.30;0.20;;;;;;;;;;5073233;28;20889;-64
2021/06/02 13:18:27;;;;;;;0.30;0.20;;;;;;;;;;5073167;28;20410;-64
2021/06/02 13:20:53;;;;;;;0.30;0.20;;;;;;;;;;5073332;28;20434;-63
2021/06/02 13:23:24;;;;;;;0.30;0.20;;;;;;;;;;5073243;28;20435;-63
2021/06/02 13:26:03;;;;;;;0.30;0.20;;;;;;;;;;5073190;28;20384;-63
2021/06/02 13:28:30;;;;;;;0.30;0.20;;;;;;;;;;5072998;28;20391;-64
2021/06/02 13:31:00;;;;;;;0.30;0.20;;;;;;;;;;5072995;28;20490;-64
2021/06/02 13:33:43;;;;;;;0.30;0.20;;;;;;;;;;5073084;28;20449;-64
2021/06/02 13:36:13;;;;;;;0.30;0.20;;;;;;;;;;5073082;28;20410;-64
2021/06/02 13:38:39;;;;;;;0.30;0.20;;;;;;;;;;5072735;28;20500;-64
2021/06/02 13:41:06;;;;;;;0.30;0.20;;;;;;;;;;5073212;28;20793;-64
2021/06/02 13:43:44;;;;;;;0.30;0.20;;;;;;;;;;5072825;28;20468;-64
2021/06/02 13:46:11;;;;;;;0.30;0.20;;;;;;;;;;5072680;28;20391;-64
2021/06/02 13:48:43;;;;;;;0.30;0.20;;;;;;;;;;5072372;28;20402;-64
2021/06/02 13:51:16;;;;;;;0.30;0.20;;;;;;;;;;5072662;28;20456;-64
2021/06/02 13:54:01;;;;;;;0.30;0.20;;;;;;;;;;5072789;28;20829;-64
2021/06/02 13:56:27;;;;;;;0.30;0.20;;;;;;;;;;5073041;28;20927;-64
2021/06/02 13:59:09;;;;;;;0.30;0.20;;;;;;;;;;5072315;28;20433;-64
2021/06/02 14:01:36;;;;;;;0.30;0.20;;;;;;;;;;5054405;28;20421;-64
2021/06/02 14:04:03;;;;;;;0.20;0.20;;;;;;;;;;5072429;28;20432;-64
2021/06/02 14:06:29;;;;;;;0.20;0.20;;;;;;;;;;5072568;28;20723;-64
2021/06/02 14:08:55;;;;;;;0.20;0.20;;;;;;;;;;5072114;28;20463;-64
2021/06/02 14:11:25;;;;;;;0.20;0.20;;;;;;;;;;5072137;28;20446;-64
2021/06/02 14:13:51;;;;;;;0.20;0.20;;;;;;;;;;5070958;28;20391;-64
2021/06/02 14:16:20;;;;;;;0.20;0.20;;;;;;;;;;5072422;28;20467;-63
2021/06/02 14:18:46;;;;;;;0.20;0.20;;;;;;;;;;5089224;28;20424;-64
2021/06/02 14:21:12;;;;;;;0.20;0.20;;;;;;;;;;5091949;28;20767;-64
2021/06/02 14:23:39;;;;;;;0.20;0.20;;;;;;;;;;5092272;28;20593;-64
2021/06/02 14:26:05;;;;;;;0.20;0.20;;;;;;;;;;5092402;28;20909;-64
2021/06/02 14:28:31;;;;;;;0.20;0.20;;;;;;;;;;5091830;28;20401;-64
2021/06/02 14:30:57;;;;;;;0.20;0.20;;;;;;;;;;5092147;28;20430;-64
2021/06/02 14:33:23;;;;;;;0.20;0.20;;;;;;;;;;5092357;28;20396;-64
2021/06/02 14:35:49;;;;;;;0.20;0.20;;;;;;;;;;5092414;28;20404;-64
2021/06/02 14:38:15;;;;;;;0.20;0.20;;;;;;;;;;5092228;28;20383;-64
2021/06/02 14:40:41;;;;;;;0.20;0.20;;;;;;;;;;5091917;28;20435;-64
2021/06/02 14:43:08;;;;;;;0.20;0.20;;;;;;;;;;5092981;28;20547;-64
2021/06/02 14:45:34;;;;;;;0.20;0.20;;;;;;;;;;5092350;28;20417;-63
2021/06/02 14:48:00;;;;;;;0.20;0.20;;;;;;;;;;5092772;28;20371;-63
2021/06/02 14:50:26;;;;;;;0.20;0.20;;;;;;;;;;5091515;28;20440;-64
2021/06/02 14:52:56;;;;;;;0.20;0.20;;;;;;;;;;5091835;28;20774;-64
2021/06/02 14:55:26;;;;;;;0.20;0.20;;;;;;;;;;5091919;28;20920;-64
2021/06/02 14:57:52;;;;;;;0.20;0.20;;;;;;;;;;5091801;28;20910;-64
2021/06/02 15:00:19;;;;;;;0.20;0.20;;;;;;;;;;5091694;28;20580;-64
2021/06/02 15:02:45;;;;;;;0.20;0.20;;;;;;;;;;5091956;28;20434;-64
2021/06/02 15:05:12;;;;;;;0.20;0.20;;;;;;;;;;5091750;28;20453;-64
2021/06/02 15:07:38;;;;;;;0.20;0.20;;;;;;;;;;5091619;28;20412;-64
2021/06/02 15:10:04;;;;;;;0.20;0.20;;;;;;;;;;5091183;28;20472;-64